createdAt,value
2018-07-21T00:00:37.227Z,21.81
2018-07-21T00:03:06.995Z,21.60
2018-07-21T00:05:36.269Z,21.64
2018-07-21T00:08:05.770Z,21.56
2018-07-21T00:10:35.105Z,21.49
2018-07-21T00:13:04.511Z,21.39
2018-07-21T00:15:33.866Z,21.31
2018-07-21T00:18:03.210Z,21.03
2018-07-21T00:20:32.562Z,20.92
2018-07-21T00:23:01.864Z,20.81
2018-07-21T00:25:31.643Z,20.79
2018-07-21T00:28:00.975Z,20.78
2018-07-21T00:30:30.291Z,20.89
2018-07-21T00:32:59.695Z,20.98
2018-07-21T00:35:28.997Z,20.92
2018-07-21T00:37:58.382Z,21.01
2018-07-21T00:40:27.694Z,20.89
2018-07-21T00:42:57.095Z,21.12
2018-07-21T00:45:26.398Z,21.08
2018-07-21T00:47:56.042Z,20.94
2018-07-21T00:50:25.354Z,20.99
2018-07-21T00:52:54.671Z,20.94
2018-07-21T00:55:23.994Z,20.90
2018-07-21T00:57:53.314Z,20.91
2018-07-21T01:00:22.980Z,21.05
2018-07-21T01:02:52.336Z,21.14
2018-07-21T01:05:21.638Z,21.22
2018-07-21T01:07:50.966Z,21.16
2018-07-21T01:10:20.609Z,21.21
2018-07-21T01:12:49.891Z,21.24
2018-07-21T01:15:19.195Z,21.27
2018-07-21T01:17:48.763Z,21.41
2018-07-21T01:20:18.104Z,21.34
2018-07-21T01:22:47.418Z,21.17
2018-07-21T01:25:16.522Z,21.09
2018-07-21T01:27:45.796Z,21.19
2018-07-21T01:30:15.110Z,21.19
2018-07-21T01:32:44.290Z,21.13
2018-07-21T01:35:13.560Z,21.26
2018-07-21T01:37:42.810Z,21.29
2018-07-21T01:40:12.114Z,21.23
2018-07-21T01:42:41.389Z,21.22
2018-07-21T01:45:10.736Z,21.15
2018-07-21T01:47:40.048Z,21.26
2018-07-21T01:50:09.328Z,21.24
2018-07-21T01:52:38.645Z,21.14
2018-07-21T01:55:08.392Z,20.94
2018-07-21T01:57:37.702Z,20.94
2018-07-21T02:00:07.030Z,21.04
2018-07-21T02:02:36.352Z,21.03
2018-07-21T02:05:07.012Z,20.90
2018-07-21T02:07:36.361Z,20.95
2018-07-21T02:10:05.651Z,20.87
2018-07-21T02:12:35.007Z,21.01
2018-07-21T02:15:04.272Z,20.92
2018-07-21T02:17:33.919Z,20.93
2018-07-21T02:20:03.196Z,20.90
2018-07-21T02:22:32.571Z,20.76
2018-07-21T02:25:01.861Z,20.80
2018-07-21T02:27:31.638Z,20.82
2018-07-21T02:30:00.953Z,20.70
2018-07-21T02:32:30.403Z,20.62
2018-07-21T02:34:59.715Z,20.63
2018-07-21T02:37:28.993Z,20.58
2018-07-21T02:39:58.471Z,20.56
2018-07-21T02:42:27.813Z,20.66
2018-07-21T02:44:57.083Z,20.62
2018-07-21T02:47:26.451Z,20.59
2018-07-21T02:49:55.780Z,20.64
2018-07-21T02:52:25.111Z,20.64
2018-07-21T02:54:54.460Z,20.72
2018-07-21T02:57:23.802Z,20.68
2018-07-21T02:59:53.102Z,20.51
2018-07-21T03:02:22.498Z,20.59
2018-07-21T03:04:51.769Z,20.52
2018-07-21T03:07:21.094Z,20.53
2018-07-21T03:09:50.515Z,20.46
2018-07-21T03:12:19.864Z,20.50
2018-07-21T03:14:49.194Z,20.43
2018-07-21T03:17:18.523Z,20.48
2018-07-21T03:19:47.871Z,20.45
2018-07-21T03:22:17.173Z,20.51
2018-07-21T03:24:46.621Z,20.56
2018-07-21T03:27:15.894Z,20.34
2018-07-21T03:29:45.217Z,20.29
2018-07-21T03:32:14.495Z,20.48
2018-07-21T03:34:43.795Z,20.57
2018-07-21T03:37:13.159Z,20.47
2018-07-21T03:39:42.507Z,20.40
2018-07-21T03:42:12.233Z,20.31
2018-07-21T03:44:41.511Z,20.46
2018-07-21T03:47:11.188Z,20.58
2018-07-21T03:49:40.643Z,20.69
2018-07-21T03:52:09.930Z,20.67
2018-07-21T03:54:39.279Z,20.60
2018-07-21T03:57:08.620Z,20.70
2018-07-21T03:59:37.939Z,20.67
2018-07-21T04:02:07.263Z,20.61
2018-07-21T04:04:36.566Z,20.72
2018-07-21T04:07:06.076Z,20.77
2018-07-21T04:09:35.997Z,20.84
2018-07-21T04:12:05.383Z,20.91
2018-07-21T04:14:34.655Z,20.99
2018-07-21T04:17:04.074Z,21.11
2018-07-21T04:19:33.388Z,21.17
2018-07-21T04:22:02.731Z,21.32
2018-07-21T04:24:32.106Z,21.26
2018-07-21T04:27:01.401Z,21.29
2018-07-21T04:29:30.854Z,21.43
2018-07-21T04:32:00.560Z,21.48
2018-07-21T04:34:29.905Z,21.42
2018-07-21T04:36:59.268Z,21.57
2018-07-21T04:39:28.688Z,21.58
2018-07-21T04:41:58.006Z,21.55
2018-07-21T04:44:27.342Z,21.51
2018-07-21T04:46:56.693Z,21.65
2018-07-21T04:49:26.126Z,21.73
2018-07-21T04:51:55.431Z,21.74
2018-07-21T04:54:25.310Z,21.76
2018-07-21T04:56:54.636Z,21.46
2018-07-21T04:59:23.943Z,21.74
2018-07-21T05:01:53.319Z,21.88
2018-07-21T05:04:22.653Z,21.89
2018-07-21T05:06:52.042Z,21.93
2018-07-21T05:09:21.391Z,22.12
2018-07-21T05:11:50.439Z,22.30
2018-07-21T05:14:19.725Z,22.27
2018-07-21T05:16:49.599Z,22.33
2018-07-21T05:19:18.950Z,22.44
2018-07-21T05:21:48.302Z,22.44
2018-07-21T05:24:17.710Z,22.52
2018-07-21T05:26:47.045Z,22.55
2018-07-21T05:29:16.386Z,22.76
2018-07-21T05:31:45.750Z,22.86
2018-07-21T05:34:15.052Z,22.94
2018-07-21T05:36:44.383Z,23.10
2018-07-21T05:39:14.192Z,23.19
2018-07-21T05:41:43.424Z,23.26
2018-07-21T05:44:12.722Z,23.33
2018-07-21T05:46:42.064Z,23.53
2018-07-21T05:49:11.357Z,23.84
2018-07-21T05:51:40.667Z,24.07
2018-07-21T05:54:10.002Z,24.28
2018-07-21T05:56:39.301Z,24.33
2018-07-21T05:59:08.631Z,24.31
2018-07-21T06:01:38.151Z,24.30
2018-07-21T06:04:07.512Z,24.58
2018-07-21T06:06:36.827Z,24.76
2018-07-21T06:09:09.165Z,24.90
2018-07-21T06:11:38.578Z,25.11
2018-07-21T06:14:07.939Z,25.01
2018-07-21T06:16:37.029Z,24.92
2018-07-21T06:19:06.290Z,25.37
2018-07-21T06:21:35.611Z,25.49
2018-07-21T06:24:05.328Z,25.42
2018-07-21T06:26:34.617Z,25.00
2018-07-21T06:29:03.895Z,25.17
2018-07-21T06:31:33.198Z,24.95
2018-07-21T06:34:02.634Z,25.12
2018-07-21T06:36:31.919Z,24.89
2018-07-21T06:39:01.215Z,24.99
2018-07-21T06:41:30.515Z,25.20
2018-07-21T06:44:00.033Z,25.72
2018-07-21T06:46:29.520Z,25.77
2018-07-21T06:48:58.913Z,25.43
2018-07-21T06:51:28.214Z,25.14
2018-07-21T06:53:57.526Z,25.07
2018-07-21T06:56:26.844Z,25.48
2018-07-21T06:58:56.172Z,25.19
2018-07-21T07:01:25.489Z,24.72
2018-07-21T07:03:54.823Z,24.55
2018-07-21T07:06:24.201Z,24.61
2018-07-21T07:08:54.010Z,25.01
2018-07-21T07:11:23.351Z,25.47
2018-07-21T07:13:52.631Z,25.83
2018-07-21T07:16:21.988Z,26.10
2018-07-21T07:18:51.268Z,25.81
2018-07-21T07:21:20.612Z,26.05
2018-07-21T07:23:49.953Z,26.21
2018-07-21T07:26:19.422Z,26.38
2018-07-21T07:28:48.988Z,26.14
2018-07-21T07:31:18.843Z,25.75
2018-07-21T07:33:48.202Z,26.24
2018-07-21T07:36:17.459Z,26.77
2018-07-21T07:38:46.744Z,27.60
2018-07-21T07:41:16.038Z,27.67
2018-07-21T07:43:45.374Z,27.97
2018-07-21T07:46:14.705Z,27.94
2018-07-21T07:48:44.039Z,28.22
2018-07-21T07:51:13.338Z,28.22
2018-07-21T07:53:42.517Z,28.37
2018-07-21T07:56:11.807Z,28.48
2018-07-21T07:58:41.077Z,27.62
2018-07-21T08:01:10.447Z,27.19
2018-07-21T08:03:39.712Z,26.88
2018-07-21T08:06:09.077Z,26.98
2018-07-21T08:08:38.405Z,27.27
2018-07-21T08:11:07.688Z,27.46
2018-07-21T08:13:37.145Z,27.78
2018-07-21T08:16:06.565Z,28.02
2018-07-21T08:18:35.881Z,27.72
2018-07-21T08:21:05.190Z,28.03
2018-07-21T08:23:34.751Z,27.92
2018-07-21T08:26:04.087Z,27.55
2018-07-21T08:28:33.361Z,27.63
2018-07-21T08:31:02.760Z,27.98
2018-07-21T08:33:32.056Z,28.24
2018-07-21T08:36:01.390Z,28.80
2018-07-21T08:38:30.895Z,29.32
2018-07-21T08:41:00.196Z,29.17
2018-07-21T08:43:29.476Z,29.78
2018-07-21T08:45:58.823Z,30.13
2018-07-21T08:48:28.155Z,29.42
2018-07-21T08:50:57.499Z,28.32
2018-07-21T08:53:26.816Z,28.23
2018-07-21T08:55:56.175Z,28.31
2018-07-21T08:58:25.502Z,28.44
2018-07-21T09:00:54.964Z,28.50
2018-07-21T09:03:24.537Z,28.43
2018-07-21T09:05:53.938Z,27.79
2018-07-21T09:08:23.319Z,28.30
2018-07-21T09:10:52.610Z,28.70
2018-07-21T09:13:21.955Z,28.92
2018-07-21T09:15:51.435Z,29.18
2018-07-21T09:18:20.720Z,29.35
2018-07-21T09:20:50.032Z,29.14
2018-07-21T09:23:19.523Z,29.81
2018-07-21T09:25:48.818Z,30.54
2018-07-21T09:28:18.117Z,31.16
2018-07-21T09:30:47.425Z,30.71
2018-07-21T09:33:16.746Z,30.69
2018-07-21T09:35:46.430Z,30.62
2018-07-21T09:38:15.747Z,30.97
2018-07-21T09:40:45.024Z,31.66
2018-07-21T09:43:14.256Z,31.84
2018-07-21T09:45:44.166Z,32.27
2018-07-21T09:48:13.544Z,32.70
2018-07-21T09:50:45.955Z,33.33
2018-07-21T09:53:15.036Z,33.82
2018-07-21T09:55:44.436Z,33.23
2018-07-21T09:58:13.719Z,33.04
2018-07-21T10:00:48.382Z,33.01
2018-07-21T10:03:17.716Z,32.88
2018-07-21T10:05:47.101Z,32.40
2018-07-21T10:08:16.409Z,32.46
2018-07-21T10:10:45.838Z,32.02
2018-07-21T10:13:15.147Z,31.99
2018-07-21T10:15:44.605Z,31.85
2018-07-21T10:18:13.958Z,31.45
2018-07-21T10:20:43.367Z,30.96
2018-07-21T10:23:12.949Z,30.53
2018-07-21T10:25:47.495Z,30.64
2018-07-21T10:28:22.270Z,30.02
2018-07-21T10:30:51.538Z,29.73
2018-07-21T10:33:21.039Z,29.92
2018-07-21T10:35:50.198Z,30.27
2018-07-21T10:38:19.532Z,30.06
2018-07-21T10:40:49.078Z,29.78
2018-07-21T10:43:18.685Z,30.15
2018-07-21T10:45:47.946Z,30.72
2018-07-21T10:48:17.323Z,30.66
2018-07-21T10:50:46.743Z,30.73
2018-07-21T10:53:16.047Z,30.56
2018-07-21T10:55:45.357Z,29.83
2018-07-21T10:58:14.659Z,29.55
2018-07-21T11:00:44.049Z,30.09
2018-07-21T11:03:13.399Z,30.49
2018-07-21T11:05:42.846Z,30.84
2018-07-21T11:08:12.723Z,30.70
2018-07-21T11:10:42.193Z,30.65
2018-07-21T11:13:11.530Z,30.39
2018-07-21T11:15:40.657Z,31.13
2018-07-21T11:18:10.014Z,31.83
2018-07-21T11:20:39.378Z,32.21
2018-07-21T11:23:09.073Z,32.34
2018-07-21T11:25:38.865Z,31.65
2018-07-21T11:28:08.571Z,31.79
2018-07-21T11:30:37.626Z,32.52
2018-07-21T11:33:07.043Z,32.96
2018-07-21T11:35:36.542Z,32.29
2018-07-21T11:38:05.982Z,32.32
2018-07-21T11:40:35.027Z,31.97
2018-07-21T11:43:04.351Z,32.69
2018-07-21T11:45:33.790Z,33.44
2018-07-21T11:48:03.142Z,34.01
2018-07-21T11:50:32.762Z,33.57
2018-07-21T11:53:02.047Z,32.75
2018-07-21T11:55:32.275Z,33.07
2018-07-21T11:58:01.643Z,32.59
2018-07-21T12:00:31.080Z,32.53
2018-07-21T12:03:00.403Z,32.68
2018-07-21T12:05:29.748Z,33.04
2018-07-21T12:07:59.060Z,33.22
2018-07-21T12:10:28.361Z,33.38
2018-07-21T12:12:57.961Z,33.70
2018-07-21T12:15:27.313Z,32.89
2018-07-21T12:17:56.701Z,32.34
2018-07-21T12:20:26.177Z,32.27
2018-07-21T12:22:55.407Z,32.51
2018-07-21T12:25:24.920Z,33.28
2018-07-21T12:27:55.056Z,33.80
2018-07-21T12:30:24.489Z,33.65
2018-07-21T12:32:54.233Z,34.09
2018-07-21T12:35:23.729Z,34.44
2018-07-21T12:37:53.128Z,33.57
2018-07-21T12:40:22.537Z,32.89
2018-07-21T12:42:51.875Z,32.70
2018-07-21T12:45:21.183Z,32.51
2018-07-21T12:47:50.511Z,33.47
2018-07-21T12:50:19.840Z,33.97
2018-07-21T12:52:49.170Z,33.61
2018-07-21T12:55:18.474Z,34.02
2018-07-21T12:57:48.417Z,34.07
2018-07-21T13:00:17.786Z,33.81
2018-07-21T13:02:47.078Z,33.97
2018-07-21T13:05:18.147Z,33.65
2018-07-21T13:07:47.468Z,33.80
2018-07-21T13:10:16.738Z,33.94
2018-07-21T13:12:46.023Z,33.76
2018-07-21T13:15:15.643Z,33.66
2018-07-21T13:17:44.946Z,33.52
2018-07-21T13:20:14.631Z,33.42
2018-07-21T13:22:43.991Z,33.13
2018-07-21T13:25:13.332Z,33.13
2018-07-21T13:27:42.651Z,33.16
2018-07-21T13:30:11.991Z,33.22
2018-07-21T13:32:41.270Z,33.32
2018-07-21T13:35:11.067Z,33.53
2018-07-21T13:37:40.472Z,33.40
2018-07-21T13:40:10.547Z,32.92
2018-07-21T13:42:40.364Z,32.98
2018-07-21T13:45:09.742Z,32.75
2018-07-21T13:47:39.072Z,32.85
2018-07-21T13:50:08.590Z,32.41
2018-07-21T13:52:37.911Z,32.07
2018-07-21T13:55:07.606Z,32.22
2018-07-21T13:57:36.973Z,32.41
2018-07-21T14:00:07.000Z,31.74
2018-07-21T14:02:36.312Z,32.07
2018-07-21T14:05:05.754Z,32.17
2018-07-21T14:07:35.138Z,32.29
2018-07-21T14:10:04.581Z,32.28
2018-07-21T14:12:33.920Z,32.28
2018-07-21T14:15:03.175Z,32.03
2018-07-21T14:17:32.543Z,32.11
2018-07-21T14:20:03.108Z,32.08
2018-07-21T14:22:32.407Z,32.13
2018-07-21T14:25:01.761Z,32.01
2018-07-21T14:27:31.547Z,31.88
2018-07-21T14:30:00.977Z,31.90
2018-07-21T14:32:30.150Z,31.68
2018-07-21T14:34:59.756Z,31.72
2018-07-21T14:37:29.069Z,31.45
2018-07-21T14:39:58.401Z,31.55
2018-07-21T14:42:27.726Z,31.61
2018-07-21T14:44:57.068Z,31.42
2018-07-21T14:47:26.404Z,31.28
2018-07-21T14:49:56.204Z,31.21
2018-07-21T14:52:25.505Z,31.28
2018-07-21T14:54:54.921Z,31.31
2018-07-21T14:57:24.196Z,31.47
2018-07-21T14:59:53.502Z,31.51
2018-07-21T15:02:22.776Z,31.59
2018-07-21T15:04:52.144Z,31.64
2018-07-21T15:07:21.419Z,31.62
2018-07-21T15:09:50.779Z,31.66
2018-07-21T15:12:20.620Z,31.63
2018-07-21T15:14:49.968Z,31.64
2018-07-21T15:17:19.258Z,31.48
2018-07-21T15:19:48.589Z,31.38
2018-07-21T15:22:17.918Z,31.40
2018-07-21T15:24:47.251Z,31.30
2018-07-21T15:27:16.588Z,31.11
2018-07-21T15:29:45.876Z,31.08
2018-07-21T15:32:15.167Z,31.08
2018-07-21T15:34:44.843Z,30.98
2018-07-21T15:37:14.207Z,30.82
2018-07-21T15:39:43.517Z,30.91
2018-07-21T15:42:12.848Z,30.81
2018-07-21T15:44:41.891Z,30.63
2018-07-21T15:47:11.199Z,30.66
2018-07-21T15:49:40.562Z,30.65
2018-07-21T15:52:09.966Z,30.68
2018-07-21T15:54:39.312Z,30.68
2018-07-21T15:57:09.156Z,30.60
2018-07-21T15:59:38.558Z,30.54
2018-07-21T16:02:08.000Z,30.65
2018-07-21T16:04:37.327Z,30.64
2018-07-21T16:07:06.692Z,30.79
2018-07-21T16:09:36.104Z,30.73
2018-07-21T16:12:05.441Z,30.67
2018-07-21T16:14:34.848Z,30.75
2018-07-21T16:17:04.190Z,30.84
2018-07-21T16:19:33.716Z,30.77
2018-07-21T16:22:06.472Z,30.79
2018-07-21T16:24:36.745Z,30.87
2018-07-21T16:27:06.142Z,30.88
2018-07-21T16:29:35.508Z,30.94
2018-07-21T16:32:04.803Z,30.91
2018-07-21T16:34:34.208Z,30.92
2018-07-21T16:37:03.493Z,31.05
2018-07-21T16:39:33.408Z,30.90
2018-07-21T16:42:02.752Z,30.90
2018-07-21T16:44:32.122Z,30.88
2018-07-21T16:47:01.478Z,30.90
2018-07-21T16:49:30.798Z,31.02
2018-07-21T16:52:00.133Z,31.05
2018-07-21T16:54:29.574Z,31.04
2018-07-21T16:56:58.880Z,31.09
2018-07-21T16:59:28.254Z,31.10
2018-07-21T17:01:58.040Z,31.18
2018-07-21T17:04:27.403Z,30.97
2018-07-21T17:06:56.742Z,31.19
2018-07-21T17:09:26.282Z,31.29
2018-07-21T17:11:55.588Z,31.28
2018-07-21T17:14:24.973Z,31.13
2018-07-21T17:16:54.278Z,31.06
2018-07-21T17:19:23.586Z,30.96
2018-07-21T17:21:52.653Z,30.88
2018-07-21T17:24:22.380Z,30.78
2018-07-21T17:26:51.674Z,30.77
2018-07-21T17:29:21.136Z,30.81
2018-07-21T17:31:50.495Z,30.53
2018-07-21T17:34:19.795Z,30.48
2018-07-21T17:36:49.143Z,30.47
2018-07-21T17:39:18.570Z,30.48
2018-07-21T17:41:47.910Z,30.41
2018-07-21T17:44:17.297Z,30.55
2018-07-21T17:46:46.700Z,30.51
2018-07-21T17:49:16.053Z,30.42
2018-07-21T17:51:45.391Z,30.41
2018-07-21T17:54:14.777Z,30.43
2018-07-21T17:56:44.111Z,30.35
2018-07-21T17:59:13.396Z,30.35
2018-07-21T18:01:42.835Z,30.18
2018-07-21T18:04:12.170Z,30.24
2018-07-21T18:06:41.545Z,30.15
2018-07-21T18:09:12.125Z,30.08
2018-07-21T18:11:41.542Z,30.18
2018-07-21T18:14:11.022Z,30.18
2018-07-21T18:16:40.347Z,30.18
2018-07-21T18:19:09.666Z,30.13
2018-07-21T18:21:39.025Z,30.10
2018-07-21T18:24:08.519Z,30.09
2018-07-21T18:26:37.875Z,29.97
2018-07-21T18:29:07.819Z,29.85
2018-07-21T18:31:37.421Z,29.84
2018-07-21T18:34:07.193Z,29.89
2018-07-21T18:36:36.456Z,29.95
2018-07-21T18:39:09.592Z,29.90
2018-07-21T18:41:38.958Z,29.80
2018-07-21T18:44:08.758Z,29.77
2018-07-21T18:46:38.659Z,29.84
2018-07-21T18:49:07.935Z,29.85
2018-07-21T18:51:37.221Z,29.82
2018-07-21T18:54:06.638Z,29.76
2018-07-21T18:56:35.967Z,29.62
2018-07-21T18:59:05.319Z,29.63
2018-07-21T19:01:34.635Z,29.62
2018-07-21T19:04:03.984Z,29.59
2018-07-21T19:06:33.370Z,29.47
2018-07-21T19:09:05.703Z,29.29
2018-07-21T19:11:35.011Z,29.26
2018-07-21T19:14:04.292Z,29.20
2018-07-21T19:16:39.998Z,29.23
2018-07-21T19:19:09.481Z,29.16
2018-07-21T19:21:38.762Z,29.11
2018-07-21T19:24:08.584Z,29.04
2018-07-21T19:26:43.046Z,29.08
2018-07-21T19:29:13.013Z,28.92
2018-07-21T19:31:46.493Z,28.84
2018-07-21T19:34:15.816Z,28.82
2018-07-21T19:36:45.104Z,28.78
2018-07-21T19:39:14.405Z,28.72
2018-07-21T19:41:49.288Z,28.66
2018-07-21T19:44:18.555Z,28.64
2018-07-21T19:46:47.915Z,28.52
2018-07-21T19:49:17.345Z,28.60
2018-07-21T19:51:46.804Z,28.59
2018-07-21T19:54:16.167Z,28.53
2018-07-21T19:56:45.591Z,28.49
2018-07-21T19:59:14.898Z,28.40
2018-07-21T20:01:44.193Z,28.40
2018-07-21T20:04:13.647Z,28.39
2018-07-21T20:06:42.945Z,28.35
2018-07-21T20:09:12.224Z,28.28
2018-07-21T20:11:42.523Z,28.25
2018-07-21T20:14:11.829Z,28.19
2018-07-21T20:16:41.135Z,28.12
2018-07-21T20:19:10.532Z,28.02
2018-07-21T20:21:39.810Z,27.91
2018-07-21T20:24:09.159Z,27.93
2018-07-21T20:26:38.909Z,27.88
2018-07-21T20:29:08.212Z,27.91
2018-07-21T20:31:38.014Z,27.87
2018-07-21T20:34:07.384Z,27.83
2018-07-21T20:36:36.673Z,27.85
2018-07-21T20:39:09.374Z,27.78
2018-07-21T20:41:38.992Z,27.72
2018-07-21T20:44:08.387Z,27.81
2018-07-21T20:46:38.262Z,27.77
2018-07-21T20:49:07.627Z,27.68
2018-07-21T20:51:36.943Z,27.66
2018-07-21T20:54:06.305Z,27.67
2018-07-21T20:56:35.551Z,27.60
2018-07-21T20:59:04.932Z,27.59
2018-07-21T21:01:34.281Z,27.53
2018-07-21T21:04:03.611Z,27.61
2018-07-21T21:06:32.979Z,27.61
2018-07-21T21:09:02.412Z,27.51
2018-07-21T21:11:31.791Z,27.44
2018-07-21T21:14:01.127Z,27.42
2018-07-21T21:16:30.500Z,27.41
2018-07-21T21:18:59.807Z,27.35
2018-07-21T21:21:29.111Z,27.37
2018-07-21T21:23:59.414Z,27.28
2018-07-21T21:26:28.750Z,27.34
2018-07-21T21:28:58.124Z,27.24
2018-07-21T21:31:27.891Z,27.21
2018-07-21T21:33:57.352Z,27.03
2018-07-21T21:36:26.728Z,27.07
2018-07-21T21:38:56.053Z,27.01
2018-07-21T21:41:25.380Z,27.06
2018-07-21T21:43:54.695Z,27.17
2018-07-21T21:46:24.007Z,27.18
2018-07-21T21:48:53.467Z,27.10
2018-07-21T21:51:22.848Z,27.14
2018-07-21T21:53:52.496Z,27.12
2018-07-21T21:56:21.792Z,27.14
2018-07-21T21:58:51.158Z,27.18
2018-07-21T22:01:20.481Z,27.16
2018-07-21T22:03:49.930Z,26.87
2018-07-21T22:06:19.240Z,26.92
2018-07-21T22:08:48.574Z,26.85
2018-07-21T22:11:17.866Z,26.71
2018-07-21T22:13:47.211Z,26.73
2018-07-21T22:16:17.013Z,26.49
2018-07-21T22:18:46.303Z,26.44
2018-07-21T22:21:15.591Z,26.38
2018-07-21T22:23:45.002Z,26.52
2018-07-21T22:26:14.290Z,26.62
2018-07-21T22:28:43.613Z,26.44
2018-07-21T22:31:12.995Z,26.48
2018-07-21T22:33:42.305Z,26.67
2018-07-21T22:36:11.710Z,26.56
2018-07-21T22:38:41.755Z,26.48
2018-07-21T22:41:11.086Z,26.50
2018-07-21T22:43:40.601Z,26.52
2018-07-21T22:46:09.963Z,26.44
2018-07-21T22:48:39.263Z,26.36
2018-07-21T22:51:08.602Z,26.40
2018-07-21T22:53:37.957Z,26.23
2018-07-21T22:56:07.297Z,26.17
2018-07-21T22:58:36.707Z,26.27
2018-07-21T23:01:06.335Z,25.88
2018-07-21T23:03:35.644Z,25.99
2018-07-21T23:06:05.064Z,26.00
2018-07-21T23:08:34.448Z,26.18
2018-07-21T23:11:03.708Z,26.33
2018-07-21T23:13:32.979Z,26.43
2018-07-21T23:16:02.369Z,26.44
2018-07-21T23:18:31.676Z,26.51
2018-07-21T23:21:00.938Z,26.63
2018-07-21T23:23:30.540Z,26.56
2018-07-21T23:25:59.893Z,26.63
2018-07-21T23:28:29.225Z,26.55
2018-07-21T23:30:58.599Z,26.63
2018-07-21T23:33:27.907Z,26.45
2018-07-21T23:35:57.290Z,26.58
2018-07-21T23:38:26.964Z,26.53
2018-07-21T23:40:56.296Z,26.54
2018-07-21T23:43:25.576Z,26.63
2018-07-21T23:45:55.176Z,26.67
2018-07-21T23:48:24.455Z,26.73
2018-07-21T23:50:53.755Z,26.69
2018-07-21T23:53:23.090Z,26.79
2018-07-21T23:55:52.433Z,26.75
2018-07-21T23:58:21.802Z,26.76
